Time;durP1;ratioP1;P1;durP2;ratioP2;P2;SDS_P1;SDS_P2;PMS_P1;PMS_P2;Temp;Humidity;BMP_temperature;BMP_pressure;BME280_temperature;BME280_humidity;BME280_pressure;Samples;Min_cycle;Max_cycle;Signal;HPM_P1;HPM_P2
2022/03/02 00:00:16;;;;;;;12.95;8.73;;;17.70;53.90;;;;;;4995352;28;20026;-74
2022/03/02 00:02:42;;;;;;;12.32;8.82;;;17.70;53.90;;;;;;5010700;28;20033;-75
2022/03/02 00:05:09;;;;;;;13.55;8.45;;;17.70;53.90;;;;;;5013041;28;20022;-73
2022/03/02 00:07:34;;;;;;;13.45;8.32;;;17.60;53.90;;;;;;4995459;28;20049;-75
2022/03/02 00:10:01;;;;;;;12.25;8.70;;;17.60;53.90;;;;;;4994876;28;20474;-77
2022/03/02 00:12:27;;;;;;;12.98;8.50;;;17.60;54.00;;;;;;5012616;28;20034;-78
2022/03/02 00:14:52;;;;;;;14.40;9.23;;;17.60;54.00;;;;;;5011094;28;20029;-74
2022/03/02 00:17:18;;;;;;;11.05;8.73;;;17.50;53.90;;;;;;5012014;28;20055;-74
2022/03/02 00:19:44;;;;;;;12.98;9.10;;;17.50;54.00;;;;;;5011715;28;20104;-74
2022/03/02 00:22:11;;;;;;;14.18;8.73;;;17.50;54.00;;;;;;5012497;28;20434;-76
2022/03/02 00:24:37;;;;;;;11.57;8.20;;;17.40;54.00;;;;;;5012731;28;20101;-75
2022/03/02 00:27:03;;;;;;;12.73;8.68;;;17.40;54.00;;;;;;5012232;28;20100;-76
2022/03/02 00:29:28;;;;;;;13.15;9.30;;;17.40;54.10;;;;;;5012368;28;20678;-78
2022/03/02 00:31:54;;;;;;;13.52;8.98;;;17.40;54.10;;;;;;5012100;28;20500;-74
2022/03/02 00:34:20;;;;;;;12.93;8.52;;;17.40;54.00;;;;;;5011825;28;20033;-74
2022/03/02 00:36:45;;;;;;;13.38;8.40;;;17.40;54.00;;;;;;5012033;28;20033;-75
2022/03/02 00:39:11;;;;;;;12.25;8.50;;;17.40;54.10;;;;;;5011872;28;20034;-77
2022/03/02 00:41:37;;;;;;;11.50;8.43;;;17.30;54.10;;;;;;5012470;28;20030;-79
2022/03/02 00:44:03;;;;;;;12.02;8.55;;;17.30;54.20;;;;;;5011829;28;20021;-77
2022/03/02 00:46:30;;;;;;;12.18;8.48;;;17.30;54.20;;;;;;5011519;28;20033;-79
2022/03/02 00:48:58;;;;;;;13.07;8.40;;;17.30;54.30;;;;;;5011705;28;20014;-75
2022/03/02 00:51:24;;;;;;;11.02;7.68;;;17.30;54.30;;;;;;5011925;28;20064;-79
2022/03/02 00:53:51;;;;;;;15.07;9.30;;;17.30;54.30;;;;;;4993849;28;20041;-73
2022/03/02 00:56:16;;;;;;;12.70;8.35;;;17.30;54.30;;;;;;4994232;28;20445;-74
2022/03/02 00:58:42;;;;;;;15.63;8.70;;;17.20;54.40;;;;;;4994157;28;20022;-75
2022/03/02 01:01:07;;;;;;;12.13;8.05;;;17.20;54.30;;;;;;5012123;28;20029;-80
2022/03/02 01:03:33;;;;;;;13.30;9.07;;;17.20;54.40;;;;;;5011751;28;20072;-78
2022/03/02 01:06:00;;;;;;;14.50;8.93;;;17.20;54.40;;;;;;5011521;28;20040;-74
2022/03/02 01:08:26;;;;;;;13.20;8.77;;;17.20;54.30;;;;;;5011455;28;20394;-78
2022/03/02 01:10:52;;;;;;;11.05;8.43;;;17.10;54.30;;;;;;5011390;28;20025;-75
2022/03/02 01:13:18;;;;;;;12.55;8.73;;;17.20;54.40;;;;;;5011666;28;20037;-75
2022/03/02 01:15:43;;;;;;;11.25;8.70;;;17.10;54.40;;;;;;5011481;28;20029;-74
2022/03/02 01:18:09;;;;;;;11.50;8.30;;;17.10;54.40;;;;;;5011180;28;20060;-74
2022/03/02 01:20:35;;;;;;;12.35;9.05;;;17.10;54.40;;;;;;5011784;28;20037;-74
2022/03/02 01:23:01;;;;;;;13.38;8.23;;;;;;;;;;5011275;28;20025;-75
2022/03/02 01:25:27;;;;;;;12.52;8.52;;;17.10;54.40;;;;;;5011548;28;20026;-75
2022/03/02 01:27:53;;;;;;;12.85;8.35;;;17.10;54.90;;;;;;4993591;28;20390;-74
2022/03/02 01:30:20;;;;;;;12.60;9.10;;;17.10;55.30;;;;;;4993935;28;20164;-74
2022/03/02 01:32:46;;;;;;;13.43;8.52;;;17.10;56.20;;;;;;5011045;28;20041;-75
2022/03/02 01:35:12;;;;;;;10.80;8.07;;;;;;;;;;5010899;28;20027;-73
2022/03/02 01:37:38;;;;;;;12.50;10.05;;;;;;;;;;5010154;28;20025;-75
2022/03/02 01:40:05;;;;;;;13.52;9.32;;;;;;;;;;5011150;28;20170;-79
2022/03/02 01:42:31;;;;;;;15.70;9.05;;;;;;;;;;5011354;28;20076;-77
2022/03/02 01:44:57;;;;;;;12.68;9.18;;;;;;;;;;5009825;28;20026;-74
2022/03/02 01:47:27;;;;;;;13.52;8.82;;;17.10;56.30;;;;;;5010058;28;20166;-80
2022/03/02 01:49:53;;;;;;;15.75;9.43;;;17.10;58.00;;;;;;5011018;28;20030;-75
2022/03/02 01:52:18;;;;;;;11.45;8.60;;;17.00;57.60;;;;;;5010817;28;20034;-78
2022/03/02 01:54:45;;;;;;;14.18;9.45;;;17.10;57.60;;;;;;5010988;28;20477;-76
2022/03/02 01:57:11;;;;;;;10.30;8.35;;;17.10;57.60;;;;;;5013314;28;20494;-75
2022/03/02 01:59:37;;;;;;;11.77;8.63;;;17.00;57.40;;;;;;5015354;28;20062;-77
2022/03/02 02:02:03;;;;;;;13.32;8.73;;;17.00;57.40;;;;;;5014977;28;20065;-75
2022/03/02 02:04:28;;;;;;;15.90;8.95;;;17.00;57.40;;;;;;5015122;28;20037;-78
2022/03/02 02:06:54;;;;;;;14.55;9.07;;;17.00;57.20;;;;;;5014437;28;20018;-76
2022/03/02 02:09:20;;;;;;;15.50;9.60;;;17.00;57.10;;;;;;5014645;28;20087;-77
2022/03/02 02:11:46;;;;;;;12.02;9.20;;;17.00;57.10;;;;;;5014623;28;20036;-76
2022/03/02 02:14:12;;;;;;;13.10;9.02;;;17.00;57.10;;;;;;5014788;28;20109;-77
2022/03/02 02:16:38;;;;;;;13.77;9.98;;;16.90;57.00;;;;;;5015211;28;20031;-78
2022/03/02 02:19:03;;;;;;;12.75;9.48;;;16.90;57.00;;;;;;5014500;28;20389;-79
2022/03/02 02:21:29;;;;;;;15.05;10.02;;;17.00;57.00;;;;;;5014315;28;20124;-77
2022/03/02 02:23:55;;;;;;;12.52;9.25;;;16.90;56.80;;;;;;5014391;28;20390;-79
2022/03/02 02:26:21;;;;;;;14.52;10.07;;;16.90;56.90;;;;;;5014659;28;20026;-79
2022/03/02 02:28:48;;;;;;;12.85;9.30;;;16.90;56.70;;;;;;5014352;28;20429;-78
2022/03/02 02:31:14;;;;;;;11.80;9.20;;;16.90;56.70;;;;;;5014557;28;20109;-79
2022/03/02 02:33:39;;;;;;;12.07;8.88;;;16.90;56.70;;;;;;5014341;28;20053;-74
2022/03/02 02:36:05;;;;;;;14.48;9.93;;;16.90;56.60;;;;;;5014502;28;20026;-77
2022/03/02 02:38:31;;;;;;;11.65;8.95;;;16.90;56.60;;;;;;5014241;28;20037;-78
2022/03/02 02:40:56;;;;;;;12.15;9.48;;;16.80;56.50;;;;;;4996549;28;20474;-76
2022/03/02 02:43:24;;;;;;;16.55;9.20;;;16.90;56.60;;;;;;5003853;28;20073;-74
2022/03/02 02:45:51;;;;;;;12.15;9.07;;;16.80;57.10;;;;;;4994552;28;20106;-79
2022/03/02 02:48:16;;;;;;;14.45;10.25;;;16.80;56.40;;;;;;4994603;28;20046;-78
2022/03/02 02:50:49;;;;;;;14.55;10.32;;;16.80;56.40;;;;;;4994267;28;20050;-76
2022/03/02 02:53:16;;;;;;;12.32;8.70;;;16.80;56.40;;;;;;5002977;28;20116;-76
2022/03/02 02:55:43;;;;;;;12.38;9.07;;;16.80;56.30;;;;;;5013920;28;20379;-78
2022/03/02 02:58:09;;;;;;;12.85;9.35;;;16.80;56.30;;;;;;5014315;28;20018;-76
2022/03/02 03:00:39;;;;;;;14.23;9.70;;;16.80;56.30;;;;;;4996649;28;20076;-76
2022/03/02 03:03:05;;;;;;;11.60;8.98;;;16.70;56.20;;;;;;5013543;28;20029;-75
2022/03/02 03:05:32;;;;;;;13.90;9.95;;;16.80;56.20;;;;;;5014071;28;20030;-78
2022/03/02 03:08:04;;;;;;;13.88;9.55;;;16.70;56.20;;;;;;5013012;28;20057;-77
2022/03/02 03:10:31;;;;;;;12.45;9.15;;;16.70;56.20;;;;;;5013824;28;20038;-77
2022/03/02 03:12:57;;;;;;;12.63;9.18;;;;;;;;;;5013454;28;20036;-76
2022/03/02 03:15:23;;;;;;;13.30;8.75;;;;;;;;;;5013233;28;20026;-74
2022/03/02 03:17:50;;;;;;;12.48;8.88;;;;;;;;;;5012224;28;20026;-74
2022/03/02 03:20:18;;;;;;;15.82;10.00;;;;;;;;;;5013595;28;20101;-78
2022/03/02 03:22:44;;;;;;;12.18;9.25;;;;;;;;;;5013431;28;20104;-79
2022/03/02 03:25:12;;;;;;;11.95;9.43;;;;;;;;;;5012758;28;20105;-75
2022/03/02 03:27:38;;;;;;;13.48;9.68;;;;;;;;;;5013868;28;20382;-77
2022/03/02 03:30:05;;;;;;;12.40;8.02;;;;;;;;;;5013722;28;20101;-74
2022/03/02 03:32:31;;;;;;;13.00;8.45;;;;;;;;;;5013449;28;20069;-76
2022/03/02 03:34:59;;;;;;;13.52;9.98;;;;;;;;;;5011885;28;20033;-76
2022/03/02 03:37:25;;;;;;;11.52;9.00;;;;;;;;;;5013082;28;20161;-77
2022/03/02 03:39:51;;;;;;;13.30;9.98;;;;;;;;;;5012467;28;20034;-74
2022/03/02 03:42:17;;;;;;;12.15;9.27;;;;;;;;;;5013290;28;20378;-78
2022/03/02 03:44:43;;;;;;;13.43;9.13;;;;;;;;;;5012916;28;20029;-75
2022/03/02 03:47:09;;;;;;;13.70;9.40;;;;;;;;;;5013369;28;20026;-75
2022/03/02 03:49:35;;;;;;;11.80;9.50;;;;;;;;;;5013079;28;20026;-78
2022/03/02 03:52:01;;;;;;;12.13;8.80;;;;;;;;;;5012719;28;20045;-73
2022/03/02 03:54:27;;;;;;;10.75;8.93;;;;;;;;;;5012973;28;20033;-73
2022/03/02 03:56:53;;;;;;;12.77;9.75;;;;;;;;;;5012815;28;20038;-75
2022/03/02 03:59:19;;;;;;;11.82;8.70;;;;;;;;;;5011697;28;20026;-77
2022/03/02 04:01:45;;;;;;;11.75;9.27;;;;;;;;;;5012593;28;20021;-75
2022/03/02 04:04:11;;;;;;;12.73;9.13;;;16.70;56.20;;;;;;5011062;28;20042;-74
2022/03/02 04:06:37;;;;;;;13.05;9.98;;;;;;;;;;5012752;28;20029;-73
2022/03/02 04:09:03;;;;;;;12.15;9.48;;;;;;;;;;5012505;28;20037;-74
2022/03/02 04:11:30;;;;;;;12.05;9.13;;;16.70;55.40;;;;;;5012652;28;20040;-78
2022/03/02 04:13:56;;;;;;;13.80;9.18;;;16.80;55.30;;;;;;5012391;28;20024;-80
2022/03/02 04:16:21;;;;;;;12.70;9.18;;;16.80;55.30;;;;;;5012652;28;20116;-76
2022/03/02 04:18:47;;;;;;;12.80;9.30;;;16.80;55.30;;;;;;5012044;28;20029;-75
2022/03/02 04:21:13;;;;;;;13.65;10.05;;;16.80;55.20;;;;;;5011546;28;20018;-78
2022/03/02 04:23:39;;;;;;;12.77;9.07;;;16.80;55.20;;;;;;5012336;28;20406;-74
2022/03/02 04:26:04;;;;;;;12.63;8.85;;;16.80;55.20;;;;;;5011691;28;20386;-74
2022/03/02 04:28:30;;;;;;;12.27;9.52;;;16.80;55.10;;;;;;5012097;28;20030;-75
2022/03/02 04:30:56;;;;;;;13.07;8.75;;;16.80;55.10;;;;;;5012084;28;20029;-75
2022/03/02 04:33:22;;;;;;;14.18;9.25;;;16.80;55.10;;;;;;5012000;28;20029;-77
2022/03/02 04:35:48;;;;;;;12.73;9.18;;;16.80;55.10;;;;;;5011835;28;20036;-77
2022/03/02 04:38:13;;;;;;;12.23;9.00;;;16.80;55.10;;;;;;5012101;28;20036;-75
2022/03/02 04:40:39;;;;;;;11.70;9.20;;;16.80;55.10;;;;;;5010819;28;20032;-74
2022/03/02 04:43:05;;;;;;;13.90;9.27;;;16.80;55.00;;;;;;5012370;28;20029;-75
2022/03/02 04:45:31;;;;;;;10.77;8.73;;;16.80;55.00;;;;;;5011825;28;20026;-78
2022/03/02 04:47:58;;;;;;;14.13;9.48;;;16.80;55.00;;;;;;4994357;28;20017;-74
2022/03/02 04:50:25;;;;;;;12.82;8.73;;;16.80;55.00;;;;;;4990464;28;20084;-79
2022/03/02 04:52:52;;;;;;;13.07;9.23;;;16.80;55.00;;;;;;4999002;28;20041;-77
2022/03/02 04:55:18;;;;;;;11.00;8.40;;;16.80;55.00;;;;;;5011582;28;20492;-75
2022/03/02 04:57:54;;;;;;;16.58;9.48;;;16.80;55.00;;;;;;5011647;28;20026;-73
2022/03/02 05:00:31;;;;;;;15.68;9.38;;;16.80;55.00;;;;;;5011908;28;20509;-78
2022/03/02 05:02:58;;;;;;;14.23;9.48;;;16.80;54.90;;;;;;5011668;28;20032;-74
2022/03/02 05:05:25;;;;;;;12.35;9.40;;;16.80;54.90;;;;;;5011542;28;20057;-75
2022/03/02 05:07:51;;;;;;;12.40;9.10;;;16.80;54.90;;;;;;5011724;28;20022;-76
2022/03/02 05:10:20;;;;;;;13.43;9.45;;;16.80;54.90;;;;;;5011255;28;20457;-77
2022/03/02 05:12:46;;;;;;;11.80;8.60;;;16.80;54.90;;;;;;5011336;28;20037;-78
2022/03/02 05:15:13;;;;;;;13.55;9.60;;;16.80;54.90;;;;;;5011446;28;20106;-78
2022/03/02 05:17:40;;;;;;;13.55;9.63;;;16.90;54.90;;;;;;5011523;28;20478;-77
2022/03/02 05:20:08;;;;;;;12.45;9.25;;;16.90;54.90;;;;;;5011918;28;20034;-76
2022/03/02 05:22:34;;;;;;;13.32;9.13;;;16.90;54.90;;;;;;5011089;28;20490;-78
2022/03/02 05:25:01;;;;;;;12.30;9.18;;;16.90;54.80;;;;;;4993923;28;20036;-78
2022/03/02 05:27:26;;;;;;;13.95;9.70;;;16.90;54.80;;;;;;5011537;28;20463;-78
2022/03/02 05:29:52;;;;;;;13.73;9.63;;;16.90;54.80;;;;;;5011453;28;20026;-78
2022/03/02 05:32:18;;;;;;;12.30;9.48;;;16.90;54.80;;;;;;5010988;28;20038;-76
2022/03/02 05:34:43;;;;;;;11.32;8.40;;;16.90;54.80;;;;;;5010701;28;20041;-77
2022/03/02 05:37:10;;;;;;;12.55;9.32;;;16.90;54.80;;;;;;5011803;28;20393;-74
2022/03/02 05:39:35;;;;;;;11.43;9.07;;;16.90;54.80;;;;;;5010941;28;20034;-79
2022/03/02 05:42:01;;;;;;;13.00;9.10;;;16.90;54.80;;;;;;5011316;28;20036;-79
2022/03/02 05:44:27;;;;;;;11.88;9.50;;;16.90;54.70;;;;;;5011035;28;20033;-78
2022/03/02 05:46:53;;;;;;;12.18;9.13;;;16.90;54.80;;;;;;5011304;28;20030;-79
2022/03/02 05:49:19;;;;;;;10.85;8.20;;;16.90;54.80;;;;;;5004040;28;20508;-75
2022/03/02 05:51:44;;;;;;;11.40;8.52;;;16.90;54.80;;;;;;4991471;28;20069;-78
2022/03/02 05:54:11;;;;;;;11.88;8.88;;;16.90;54.70;;;;;;4991794;28;20023;-79
2022/03/02 05:56:38;;;;;;;16.10;9.73;;;16.90;54.70;;;;;;5009372;28;20402;-78
2022/03/02 05:59:08;;;;;;;13.05;9.20;;;16.90;54.70;;;;;;5010024;28;20025;-79
2022/03/02 06:01:35;;;;;;;10.85;9.27;;;16.90;54.70;;;;;;5010086;28;20022;-78
2022/03/02 06:04:05;;;;;;;11.85;8.68;;;16.90;54.70;;;;;;5011237;28;20110;-74
2022/03/02 06:06:32;;;;;;;12.65;9.80;;;16.90;54.60;;;;;;5010875;28;20030;-79
2022/03/02 06:08:59;;;;;;;11.80;8.73;;;16.90;54.70;;;;;;5011167;28;20026;-79
2022/03/02 06:11:26;;;;;;;12.77;9.25;;;16.90;55.20;;;;;;5010032;28;20083;-78
2022/03/02 06:13:51;;;;;;;11.80;8.77;;;16.90;54.60;;;;;;5010976;28;20404;-79
2022/03/02 06:16:18;;;;;;;12.63;9.77;;;16.90;54.60;;;;;;5011089;28;20022;-77
2022/03/02 06:18:43;;;;;;;13.18;9.57;;;16.90;54.60;;;;;;4993227;28;20503;-76
2022/03/02 06:21:16;;;;;;;14.30;9.25;;;16.90;54.60;;;;;;5010700;28;20108;-78
2022/03/02 06:23:42;;;;;;;11.77;8.82;;;16.90;54.50;;;;;;5010664;28;20033;-76
2022/03/02 06:26:08;;;;;;;11.00;8.55;;;16.90;54.50;;;;;;5010663;28;20033;-74
2022/03/02 06:28:34;;;;;;;11.32;8.63;;;16.90;54.50;;;;;;5009604;28;20022;-75
2022/03/02 06:31:00;;;;;;;13.23;9.20;;;16.90;54.50;;;;;;5010658;28;20026;-74
2022/03/02 06:33:25;;;;;;;11.07;8.43;;;16.90;54.50;;;;;;5009881;28;20460;-74
2022/03/02 06:35:51;;;;;;;11.82;8.50;;;16.90;54.50;;;;;;4993371;28;20489;-75
2022/03/02 06:38:18;;;;;;;10.73;8.85;;;16.90;54.50;;;;;;5010815;28;20037;-76
2022/03/02 06:41:00;;;;;;;13.07;8.95;;;16.90;54.50;;;;;;5010652;28;20026;-74
2022/03/02 06:43:30;;;;;;;11.27;9.07;;;16.90;54.50;;;;;;5011075;28;20030;-78
2022/03/02 06:45:59;;;;;;;11.60;9.15;;;;;;;;;;4995534;28;20060;-77
2022/03/02 06:48:34;;;;;;;12.15;9.27;;;16.90;54.50;;;;;;5013542;28;20034;-77
2022/03/02 06:51:01;;;;;;;11.88;8.57;;;17.00;54.50;;;;;;5014318;28;20080;-75
2022/03/02 06:53:35;;;;;;;11.23;8.98;;;16.90;54.50;;;;;;5014053;28;20065;-80
2022/03/02 06:56:05;;;;;;;14.02;9.50;;;17.00;54.50;;;;;;5013895;28;20022;-78
2022/03/02 06:58:41;;;;;;;10.77;8.23;;;17.00;54.50;;;;;;5012848;28;20084;-75
2022/03/02 07:01:09;;;;;;;12.75;9.48;;;16.90;54.50;;;;;;5013988;28;20026;-79
2022/03/02 07:03:41;;;;;;;12.90;8.82;;;16.90;54.50;;;;;;5013705;28;20029;-78
2022/03/02 07:06:07;;;;;;;11.38;8.50;;;;;;;;;;5013945;28;20466;-79
2022/03/02 07:08:34;;;;;;;12.80;8.55;;;;;;;;;;5011536;28;20445;-80
2022/03/02 07:11:00;;;;;;;13.63;8.57;;;;;;;;;;5012466;28;20071;-76
2022/03/02 07:13:27;;;;;;;10.50;8.05;;;;;;;;;;5012968;28;20030;-76
2022/03/02 07:15:53;;;;;;;14.30;9.05;;;;;;;;;;5012212;28;20049;-78
2022/03/02 07:18:19;;;;;;;11.32;9.00;;;;;;;;;;5012371;28;20025;-79
2022/03/02 07:20:47;;;;;;;13.35;8.88;;;;;;;;;;5010825;28;20539;-80
2022/03/02 07:23:15;;;;;;;15.88;9.55;;;;;;;;;;5011710;28;20508;-76
2022/03/02 07:25:42;;;;;;;13.57;9.93;;;;;;;;;;5012774;28;20552;-79
2022/03/02 07:28:12;;;;;;;13.50;9.75;;;;;;;;;;5011935;28;20482;-78
2022/03/02 07:30:39;;;;;;;16.52;10.10;;;;;;;;;;5014330;28;20029;-78
2022/03/02 07:33:05;;;;;;;11.73;8.70;;;;;;;;;;5013017;28;20337;-79
2022/03/02 07:35:32;;;;;;;14.40;9.38;;;;;;;;;;5012844;28;20037;-85
2022/03/02 07:37:59;;;;;;;12.15;8.38;;;;;;;;;;5012730;28;20036;-85
2022/03/02 07:40:26;;;;;;;13.70;9.00;;;;;;;;;;5012744;28;20018;-79
2022/03/02 07:42:52;;;;;;;14.77;9.55;;;;;;;;;;5010213;28;20077;-78
2022/03/02 07:45:19;;;;;;;16.52;10.93;;;;;;;;;;5011270;28;20026;-82
2022/03/02 07:47:47;;;;;;;15.45;10.20;;;;;;;;;;5012838;28;20359;-79
2022/03/02 07:50:16;;;;;;;15.90;9.23;;;;;;;;;;5012624;28;20482;-81
2022/03/02 07:52:51;;;;;;;11.45;9.38;;;;;;;;;;5012599;28;20065;-75
2022/03/02 07:55:17;;;;;;;18.17;10.35;;;;;;;;;;5011611;28;20042;-78
2022/03/02 07:57:43;;;;;;;18.80;10.15;;;;;;;;;;5012670;28;20513;-76
2022/03/02 08:00:11;;;;;;;13.63;8.90;;;;;;;;;;5012430;28;20049;-80
2022/03/02 08:02:38;;;;;;;17.63;9.45;;;;;;;;;;5009868;28;20030;-81
2022/03/02 08:05:05;;;;;;;13.07;9.50;;;;;;;;;;5011969;28;20018;-74
2022/03/02 08:07:31;;;;;;;14.90;10.00;;;;;;;;;;5011273;28;20026;-74
2022/03/02 08:09:57;;;;;;;16.00;9.60;;;;;;;;;;5012655;28;20398;-78
2022/03/02 08:12:24;;;;;;;14.32;9.82;;;;;;;;;;5012325;28;20038;-74
2022/03/02 08:14:51;;;;;;;13.52;10.00;;;;;;;;;;5011804;28;20022;-75
2022/03/02 08:17:17;;;;;;;14.02;10.07;;;;;;;;;;5011305;28;20026;-78
2022/03/02 08:19:46;;;;;;;16.52;10.30;;;;;;;;;;5011275;28;20103;-80
2022/03/02 08:22:23;;;;;;;16.02;10.25;;;;;;;;;;5009833;28;20478;-76
2022/03/02 08:24:55;;;;;;;14.10;9.73;;;;;;;;;;5012248;28;20529;-76
2022/03/02 08:27:22;;;;;;;12.90;9.40;;;;;;;;;;5010078;28;20018;-76
2022/03/02 08:29:54;;;;;;;13.98;9.38;;;;;;;;;;5010650;28;20025;-75
2022/03/02 08:32:20;;;;;;;14.73;9.25;;;;;;;;;;5012365;28;20041;-79
2022/03/02 08:34:48;;;;;;;14.98;9.05;;;17.70;57.30;;;;;;5012641;28;20470;-75
2022/03/02 08:37:17;;;;;;;12.43;8.40;;;17.80;57.10;;;;;;4995111;28;20029;-77
2022/03/02 08:39:43;;;;;;;13.95;9.32;;;17.90;57.30;;;;;;5011094;28;20038;-75
2022/03/02 08:42:09;;;;;;;17.75;8.73;;;;;;;;;;5012209;28;20022;-73
2022/03/02 08:44:35;;;;;;;16.05;8.60;;;18.10;55.00;;;;;;5011807;28;20032;-76
2022/03/02 08:47:01;;;;;;;11.90;8.55;;;18.10;55.30;;;;;;5012143;28;20026;-83
2022/03/02 08:49:27;;;;;;;16.42;8.35;;;18.10;55.20;;;;;;5011955;28;20026;-80
2022/03/02 08:51:55;;;;;;;12.95;8.85;;;18.10;55.30;;;;;;5011493;28;20078;-77
2022/03/02 08:54:23;;;;;;;12.35;8.90;;;18.10;55.20;;;;;;5011093;28;20041;-80
2022/03/02 08:56:51;;;;;;;13.73;8.30;;;18.20;55.30;;;;;;5011973;28;20056;-79
2022/03/02 08:59:18;;;;;;;12.05;8.10;;;18.20;55.30;;;;;;5010705;28;20032;-75
2022/03/02 09:01:49;;;;;;;13.40;8.05;;;18.20;55.20;;;;;;5011937;28;20464;-74
2022/03/02 09:04:16;;;;;;;11.48;8.10;;;18.30;55.10;;;;;;5012138;28;20378;-73
2022/03/02 09:06:43;;;;;;;11.98;7.90;;;18.30;54.90;;;;;;5010584;28;20140;-73
2022/03/02 09:09:08;;;;;;;11.98;7.47;;;18.40;55.00;;;;;;5011698;28;20532;-75
2022/03/02 09:11:34;;;;;;;11.30;7.45;;;18.40;54.90;;;;;;5011019;28;20065;-74
2022/03/02 09:14:03;;;;;;;11.27;6.75;;;18.40;54.70;;;;;;5010915;28;20490;-76
2022/03/02 09:16:30;;;;;;;16.25;8.00;;;18.50;54.60;;;;;;5011326;28;20025;-74
2022/03/02 09:18:55;;;;;;;13.65;8.48;;;18.50;54.50;;;;;;4989897;28;20464;-75
2022/03/02 09:21:22;;;;;;;11.50;6.95;;;18.60;54.40;;;;;;5006207;28;20030;-77
2022/03/02 09:23:49;;;;;;;8.73;6.65;;;18.60;54.20;;;;;;5010624;28;20045;-75
2022/03/02 09:26:17;;;;;;;13.43;7.05;;;18.70;54.20;;;;;;5011498;28;20095;-75
2022/03/02 09:28:46;;;;;;;12.30;6.93;;;18.70;54.10;;;;;;5010856;28;20022;-77
2022/03/02 09:31:14;;;;;;;14.45;7.40;;;18.70;54.00;;;;;;5010923;28;20156;-76
2022/03/02 09:33:40;;;;;;;9.75;6.95;;;18.80;54.00;;;;;;5011057;28;20461;-75
2022/03/02 09:36:08;;;;;;;12.90;7.07;;;18.80;53.90;;;;;;5011033;28;20097;-76
2022/03/02 09:38:35;;;;;;;13.98;6.85;;;18.90;53.80;;;;;;5009978;28;20030;-75
2022/03/02 09:41:06;;;;;;;12.10;6.50;;;18.90;53.90;;;;;;5010933;28;20034;-73
2022/03/02 09:43:34;;;;;;;9.57;6.60;;;19.00;53.80;;;;;;5010725;28;20041;-72
2022/03/02 09:46:05;;;;;;;12.45;6.68;;;19.00;53.70;;;;;;5011115;28;20036;-80
2022/03/02 09:48:34;;;;;;;10.05;6.85;;;19.10;53.70;;;;;;5010942;28;20049;-73
2022/03/02 09:51:06;;;;;;;14.18;6.68;;;19.10;53.70;;;;;;5010976;28;20025;-72
2022/03/02 09:53:33;;;;;;;11.68;6.47;;;19.20;53.60;;;;;;5010467;28;20123;-72
2022/03/02 09:56:06;;;;;;;10.85;6.53;;;19.20;53.40;;;;;;5010935;28;20528;-73
2022/03/02 09:58:38;;;;;;;9.63;6.45;;;;;;;;;;5010916;28;20037;-72
2022/03/02 10:01:05;;;;;;;18.88;6.82;;;19.30;53.00;;;;;;5009235;28;20129;-78
2022/03/02 10:03:36;;;;;;;11.80;6.15;;;19.60;52.30;;;;;;5010718;28;20026;-75
2022/03/02 10:06:05;;;;;;;8.20;5.60;;;19.50;52.90;;;;;;5010776;28;20496;-74
2022/03/02 10:08:35;;;;;;;9.88;6.43;;;19.50;52.30;;;;;;4999515;28;20037;-73
2022/03/02 10:11:04;;;;;;;10.82;6.43;;;19.50;52.50;;;;;;5010800;28;20034;-72
2022/03/02 10:13:31;;;;;;;10.63;6.10;;;19.50;52.60;;;;;;5010096;28;20110;-73
2022/03/02 10:15:57;;;;;;;12.25;5.95;;;19.50;52.50;;;;;;5010799;28;20045;-73
2022/03/02 10:18:26;;;;;;;13.25;6.30;;;19.50;52.40;;;;;;5013147;28;20026;-73
2022/03/02 10:20:59;;;;;;;8.52;5.85;;;19.50;52.20;;;;;;5014461;28;20568;-72
2022/03/02 10:23:36;;;;;;;8.35;5.60;;;19.60;52.10;;;;;;5012622;28;20034;-73
2022/03/02 10:26:01;;;;;;;10.45;6.57;;;19.60;52.10;;;;;;5014644;28;20036;-72
2022/03/02 10:28:29;;;;;;;9.02;5.75;;;19.60;52.00;;;;;;5013912;28;20038;-72
2022/03/02 10:31:15;;;;;;;9.50;6.03;;;19.60;51.90;;;;;;5014472;28;20033;-73
2022/03/02 10:33:55;;;;;;;12.60;6.13;;;19.60;51.80;;;;;;5003329;28;20053;-72
2022/03/02 10:36:25;;;;;;;8.77;6.13;;;19.70;51.70;;;;;;5012945;28;20116;-73
2022/03/02 10:39:00;;;;;;;13.23;6.30;;;19.70;51.60;;;;;;5014447;28;20038;-73
2022/03/02 10:41:28;;;;;;;8.57;5.85;;;19.70;51.50;;;;;;5013996;28;20117;-73
2022/03/02 10:44:04;;;;;;;10.80;6.80;;;19.70;51.50;;;;;;5013733;28;20117;-73
2022/03/02 10:46:30;;;;;;;8.18;5.95;;;19.70;51.30;;;;;;5013277;28;21723;-72
2022/03/02 10:49:18;;;;;;;9.60;6.32;;;19.70;51.30;;;;;;5013907;28;20026;-76
2022/03/02 10:51:45;;;;;;;8.07;6.32;;;19.80;51.20;;;;;;5012629;28;20421;-73
2022/03/02 10:54:17;;;;;;;8.60;6.07;;;19.80;51.10;;;;;;5014220;28;20117;-76
2022/03/02 10:56:44;;;;;;;8.40;6.07;;;19.80;51.10;;;;;;5014193;28;20359;-76
2022/03/02 10:59:16;;;;;;;8.82;6.35;;;19.80;51.30;;;;;;4996450;28;20449;-73
2022/03/02 11:01:44;;;;;;;12.15;5.95;;;19.90;51.20;;;;;;5013933;28;20041;-74
2022/03/02 11:04:10;;;;;;;13.10;6.85;;;19.90;51.20;;;;;;5012836;28;20025;-73
2022/03/02 11:06:38;;;;;;;10.07;6.55;;;19.90;51.10;;;;;;5013789;28;20034;-73
2022/03/02 11:09:05;;;;;;;10.38;5.70;;;19.90;51.00;;;;;;5013040;28;20026;-73
2022/03/02 11:11:35;;;;;;;12.90;6.82;;;20.00;51.00;;;;;;5013303;28;20069;-74
2022/03/02 11:14:02;;;;;;;8.40;6.38;;;20.00;50.80;;;;;;4995658;28;20041;-73
2022/03/02 11:16:28;;;;;;;9.32;6.30;;;20.10;50.80;;;;;;5013303;28;20025;-73
2022/03/02 11:18:54;;;;;;;12.05;6.28;;;20.20;50.80;;;;;;5012770;28;20033;-73
2022/03/02 11:21:24;;;;;;;8.35;5.63;;;20.20;50.60;;;;;;5013149;28;20092;-73
2022/03/02 11:23:54;;;;;;;12.27;7.18;;;20.30;50.60;;;;;;5013262;28;20038;-72
2022/03/02 11:26:28;;;;;;;9.32;6.03;;;20.30;50.60;;;;;;5013395;28;20022;-73
2022/03/02 11:28:57;;;;;;;10.55;6.35;;;20.40;50.50;;;;;;5013061;28;20034;-73
2022/03/02 11:31:26;;;;;;;9.90;6.00;;;20.40;50.40;;;;;;5012652;28;20048;-73
2022/03/02 11:34:10;;;;;;;10.43;6.15;;;20.40;50.50;;;;;;5013436;28;20100;-74
2022/03/02 11:36:38;;;;;;;10.35;6.55;;;20.50;50.50;;;;;;5012121;28;20021;-74
2022/03/02 11:39:05;;;;;;;11.10;6.40;;;20.60;50.50;;;;;;5012795;28;20127;-74
2022/03/02 11:41:37;;;;;;;11.65;6.55;;;20.60;50.40;;;;;;5013031;28;20096;-73
2022/03/02 11:44:05;;;;;;;8.57;6.47;;;20.70;50.30;;;;;;5013313;28;20018;-74
2022/03/02 11:46:31;;;;;;;11.00;6.75;;;;;;;;;;5012531;28;20036;-73
2022/03/02 11:48:58;;;;;;;12.90;6.88;;;;;;;;;;5012591;28;20034;-73
2022/03/02 11:51:26;;;;;;;10.77;7.18;;;;;;;;;;5012504;28;20485;-73
2022/03/02 11:53:58;;;;;;;11.07;6.68;;;21.00;49.90;;;;;;5012552;28;20025;-73
2022/03/02 11:56:28;;;;;;;10.45;6.95;;;21.00;50.50;;;;;;5012470;28;20508;-73
2022/03/02 11:59:10;;;;;;;11.73;7.32;;;21.20;49.50;;;;;;5011871;28;20026;-76
2022/03/02 12:01:45;;;;;;;9.82;6.75;;;21.30;50.20;;;;;;5005212;28;20037;-74
2022/03/02 12:04:14;;;;;;;12.30;6.90;;;21.20;50.00;;;;;;5012640;28;20493;-75
2022/03/02 12:06:44;;;;;;;9.98;6.90;;;21.20;49.90;;;;;;5012569;28;20388;-75
2022/03/02 12:09:24;;;;;;;10.15;6.78;;;21.20;50.00;;;;;;5012138;28;20022;-78
2022/03/02 12:11:50;;;;;;;8.95;6.70;;;21.20;50.10;;;;;;5011510;28;20112;-77
2022/03/02 12:14:16;;;;;;;9.48;6.97;;;21.20;50.00;;;;;;5011553;28;20092;-77
2022/03/02 12:16:48;;;;;;;12.57;7.07;;;21.30;50.00;;;;;;5011005;28;20466;-77
2022/03/02 12:19:27;;;;;;;12.25;6.80;;;21.30;49.90;;;;;;5011156;28;20044;-74
2022/03/02 12:22:06;;;;;;;8.95;6.13;;;21.30;49.90;;;;;;5011409;28;20122;-76
2022/03/02 12:24:34;;;;;;;11.93;6.80;;;21.30;50.00;;;;;;5011409;28;20065;-74
2022/03/02 12:27:05;;;;;;;10.23;6.78;;;21.30;50.00;;;;;;5010353;28;20125;-74
2022/03/02 12:29:33;;;;;;;11.55;6.32;;;21.20;50.70;;;;;;5012361;28;20057;-74
2022/03/02 12:32:11;;;;;;;9.73;6.55;;;21.10;50.10;;;;;;5010431;28;20409;-73
2022/03/02 12:34:39;;;;;;;11.50;7.50;;;21.10;50.10;;;;;;5012163;28;20030;-73
2022/03/02 12:37:07;;;;;;;14.38;8.05;;;21.00;50.00;;;;;;5013656;28;20076;-73
2022/03/02 12:39:33;;;;;;;14.85;8.93;;;21.00;50.20;;;;;;5011595;28;20030;-72
2022/03/02 12:42:02;;;;;;;13.57;9.10;;;21.00;50.00;;;;;;5007543;28;20053;-73
2022/03/02 12:44:29;;;;;;;13.57;8.65;;;21.00;50.00;;;;;;5009738;28;20063;-73
2022/03/02 12:46:59;;;;;;;11.93;8.40;;;21.00;50.00;;;;;;5010754;28;20022;-80
2022/03/02 12:49:27;;;;;;;15.35;8.77;;;21.00;50.10;;;;;;5008142;28;20091;-74
2022/03/02 12:51:56;;;;;;;13.68;8.20;;;21.00;50.00;;;;;;5010250;28;20030;-75
2022/03/02 12:54:25;;;;;;;11.95;8.10;;;21.00;50.40;;;;;;5008887;28;20079;-75
2022/03/02 12:56:51;;;;;;;11.43;8.23;;;21.10;50.10;;;;;;5011764;28;20017;-76
2022/03/02 12:59:20;;;;;;;10.55;7.18;;;21.10;50.40;;;;;;5011372;28;20163;-75
2022/03/02 13:01:46;;;;;;;12.15;7.47;;;21.20;50.40;;;;;;5011729;28;20101;-73